createdAt,value
2022-12-08T00:01:12.277Z,38.15
2022-12-08T00:06:25.430Z,40.13
2022-12-08T00:09:10.802Z,41.00
2022-12-08T00:11:37.416Z,38.88
2022-12-08T00:14:04.007Z,39.00
2022-12-08T00:16:30.623Z,37.05
2022-12-08T00:18:57.227Z,38.15
2022-12-08T00:21:23.824Z,38.75
2022-12-08T00:23:50.398Z,39.28
2022-12-08T00:26:17.050Z,37.38
2022-12-08T00:28:43.618Z,38.13
2022-12-08T00:31:11.490Z,36.90
2022-12-08T00:33:38.412Z,39.63
2022-12-08T00:36:11.301Z,38.05
2022-12-08T00:38:38.879Z,37.27
2022-12-08T00:41:43.888Z,36.88
2022-12-08T00:44:12.878Z,40.13
2022-12-08T00:46:41.094Z,39.67
2022-12-08T00:49:08.317Z,44.05
2022-12-08T00:51:35.025Z,42.42
2022-12-08T00:54:01.662Z,39.65
2022-12-08T00:56:28.322Z,44.55
2022-12-08T00:58:54.923Z,45.08
2022-12-08T01:01:21.573Z,43.33
2022-12-08T01:03:48.572Z,41.25
2022-12-08T01:06:15.401Z,42.38
2022-12-08T01:08:42.642Z,43.03
2022-12-08T01:11:17.729Z,41.67
2022-12-08T01:13:45.139Z,45.13
2022-12-08T01:16:21.904Z,43.58
2022-12-08T01:18:48.679Z,47.03
2022-12-08T01:21:15.662Z,45.85
2022-12-08T01:23:42.328Z,43.70
2022-12-08T01:26:12.050Z,42.35
2022-12-08T01:28:39.098Z,42.70
2022-12-08T01:31:10.938Z,48.35
2022-12-08T01:33:37.561Z,42.53
2022-12-08T01:36:05.473Z,45.20
2022-12-08T01:38:32.689Z,46.03
2022-12-08T01:40:59.549Z,46.90
2022-12-08T01:43:26.190Z,44.25
2022-12-08T01:45:52.844Z,47.67
2022-12-08T01:48:26.113Z,48.38
2022-12-08T01:50:55.797Z,47.28
2022-12-08T01:53:32.865Z,48.05
2022-12-08T01:56:02.506Z,46.67
2022-12-08T01:58:34.950Z,43.95
2022-12-08T02:01:01.908Z,51.17
2022-12-08T02:03:34.131Z,48.38
2022-12-08T02:06:02.064Z,46.72
2022-12-08T02:08:29.356Z,49.28
2022-12-08T02:10:55.977Z,47.38
2022-12-08T02:13:24.613Z,46.53
2022-12-08T02:16:01.843Z,49.72
2022-12-08T02:18:37.487Z,50.08
2022-12-08T02:21:10.850Z,47.80
2022-12-08T02:23:55.708Z,47.53
2022-12-08T02:26:28.177Z,47.85
2022-12-08T02:29:05.445Z,52.40
2022-12-08T02:31:59.464Z,52.70
2022-12-08T02:34:43.654Z,53.53
2022-12-08T02:37:22.498Z,56.08
2022-12-08T02:39:58.206Z,57.15
2022-12-08T02:42:33.437Z,58.17
2022-12-08T02:45:16.037Z,57.45
2022-12-08T02:47:43.653Z,57.92
2022-12-08T02:50:10.892Z,61.45
2022-12-08T02:52:45.769Z,58.65
2022-12-08T02:55:59.715Z,63.38
2022-12-08T03:01:23.576Z,61.38
2022-12-08T03:04:13.874Z,57.95
2022-12-08T03:06:55.545Z,65.97
2022-12-08T03:09:28.248Z,68.20
2022-12-08T03:12:06.695Z,75.10
2022-12-08T03:14:35.423Z,63.58
2022-12-08T03:17:03.298Z,67.50
2022-12-08T03:19:36.181Z,67.68
2022-12-08T03:22:06.542Z,68.15
2022-12-08T03:24:45.119Z,68.88
2022-12-08T03:27:19.142Z,61.53
2022-12-08T03:29:48.210Z,66.80
2022-12-08T03:32:38.798Z,65.45
2022-12-08T03:35:09.308Z,63.45
2022-12-08T03:37:37.765Z,63.53
2022-12-08T03:40:06.684Z,63.92
2022-12-08T03:42:33.651Z,73.90
2022-12-08T03:45:00.228Z,68.07
2022-12-08T03:47:26.827Z,69.20
2022-12-08T03:49:53.402Z,65.05
2022-12-08T03:52:19.991Z,68.47
2022-12-08T03:54:46.655Z,63.97
2022-12-08T03:57:13.230Z,67.93
2022-12-08T03:59:39.811Z,62.22
2022-12-08T04:02:06.428Z,64.72
2022-12-08T04:04:33.076Z,63.88
2022-12-08T04:06:59.685Z,67.90
2022-12-08T04:09:26.264Z,64.75
2022-12-08T04:11:52.843Z,62.78
2022-12-08T04:14:19.515Z,70.10
2022-12-08T04:16:46.082Z,63.78
2022-12-08T04:19:12.638Z,65.47
2022-12-08T04:21:39.227Z,70.03
2022-12-08T04:24:06.098Z,67.00
2022-12-08T04:26:32.694Z,77.65
2022-12-08T04:28:59.340Z,65.63
2022-12-08T04:31:26.055Z,71.18
2022-12-08T04:33:52.700Z,74.03
2022-12-08T04:36:19.360Z,76.38
2022-12-08T04:38:45.952Z,69.03
2022-12-08T04:41:12.639Z,72.63
2022-12-08T04:43:39.242Z,76.15
2022-12-08T04:46:08.201Z,72.05
2022-12-08T04:48:36.808Z,77.20
2022-12-08T04:51:03.450Z,69.95
2022-12-08T04:53:30.026Z,67.72
2022-12-08T04:55:56.606Z,75.38
2022-12-08T04:58:23.213Z,66.63
2022-12-08T05:00:49.885Z,62.45
2022-12-08T05:03:16.771Z,64.88
2022-12-08T05:05:43.949Z,62.72
2022-12-08T05:08:11.146Z,63.22
2022-12-08T05:10:38.761Z,67.50
2022-12-08T05:13:05.411Z,63.65
2022-12-08T05:15:31.982Z,56.88
2022-12-08T05:17:58.579Z,67.10
2022-12-08T05:20:25.160Z,66.65
2022-12-08T05:22:51.786Z,59.58
2022-12-08T05:25:18.471Z,60.05
2022-12-08T05:27:45.105Z,59.67
2022-12-08T05:30:11.869Z,65.45
2022-12-08T05:32:38.587Z,66.68
2022-12-08T05:35:05.609Z,64.70
2022-12-08T05:37:32.343Z,56.70
2022-12-08T05:39:58.997Z,55.42
2022-12-08T05:42:25.604Z,54.22
2022-12-08T05:44:52.478Z,59.53
2022-12-08T05:47:19.442Z,58.15
2022-12-08T05:49:46.198Z,55.03
2022-12-08T05:52:12.770Z,51.45
2022-12-08T05:54:39.399Z,51.10
2022-12-08T05:57:05.984Z,51.85
2022-12-08T05:59:32.708Z,51.65
2022-12-08T06:01:59.426Z,49.47
2022-12-08T06:04:26.076Z,49.72
2022-12-08T06:06:52.692Z,48.65
2022-12-08T06:09:19.276Z,52.67
2022-12-08T06:11:47.245Z,49.28
2022-12-08T06:14:13.882Z,47.28
2022-12-08T06:16:40.763Z,46.53
2022-12-08T06:19:07.617Z,46.25
2022-12-08T06:21:34.205Z,49.08
2022-12-08T06:24:00.992Z,47.58
2022-12-08T06:26:27.781Z,53.70
2022-12-08T06:28:54.823Z,46.72
2022-12-08T06:31:26.605Z,48.03
2022-12-08T06:33:54.430Z,48.63
2022-12-08T06:36:24.346Z,50.67
2022-12-08T06:38:51.621Z,47.42
2022-12-08T06:41:18.925Z,44.78
2022-12-08T06:43:46.075Z,48.67
2022-12-08T06:46:16.561Z,50.60
2022-12-08T06:48:43.399Z,48.60
2022-12-08T06:51:16.980Z,46.83
2022-12-08T06:53:44.520Z,54.08
2022-12-08T06:56:12.248Z,54.22
2022-12-08T06:58:39.149Z,53.13
2022-12-08T07:01:08.102Z,49.70
2022-12-08T07:03:35.662Z,48.65
2022-12-08T07:06:04.450Z,53.20
2022-12-08T07:08:32.208Z,50.17
2022-12-08T07:10:58.977Z,54.58
2022-12-08T07:13:25.742Z,50.92
2022-12-08T07:15:52.326Z,53.03
2022-12-08T07:18:19.001Z,52.15
2022-12-08T07:20:45.603Z,59.83
2022-12-08T07:23:12.182Z,55.50
2022-12-08T07:25:38.776Z,58.70
2022-12-08T07:28:10.033Z,65.65
2022-12-08T07:30:36.917Z,55.28
2022-12-08T07:33:04.692Z,54.45
2022-12-08T07:35:31.903Z,59.95
2022-12-08T07:38:00.039Z,53.63
2022-12-08T07:40:26.672Z,54.85
2022-12-08T07:42:53.310Z,53.55
2022-12-08T07:45:19.906Z,52.55
2022-12-08T07:47:46.540Z,54.25
2022-12-08T07:50:13.156Z,54.20
2022-12-08T07:52:39.766Z,58.75
2022-12-08T07:55:06.880Z,53.80
2022-12-08T07:57:33.461Z,55.30
2022-12-08T08:00:00.021Z,51.78
2022-12-08T08:02:26.794Z,51.88
2022-12-08T08:04:53.778Z,52.72
2022-12-08T08:07:20.593Z,53.05
2022-12-08T08:09:47.248Z,52.95
2022-12-08T08:12:30.692Z,62.35
2022-12-08T08:14:59.448Z,51.63
2022-12-08T08:17:26.141Z,54.22
2022-12-08T08:19:52.916Z,51.50
2022-12-08T08:22:19.492Z,52.10
2022-12-08T08:24:46.064Z,52.85
2022-12-08T08:27:12.870Z,49.38
2022-12-08T08:29:39.477Z,52.47
2022-12-08T08:32:06.171Z,52.60
2022-12-08T08:34:32.768Z,56.30
2022-12-08T08:36:59.445Z,50.05
2022-12-08T08:39:26.059Z,60.72
2022-12-08T08:41:52.860Z,53.97
2022-12-08T08:44:19.428Z,53.85
2022-12-08T08:46:46.058Z,59.97
2022-12-08T08:49:13.081Z,58.75
2022-12-08T08:51:39.718Z,55.05
2022-12-08T08:54:06.381Z,49.67
2022-12-08T08:56:32.962Z,51.00
2022-12-08T08:58:59.578Z,51.70
2022-12-08T09:01:27.970Z,48.63
2022-12-08T09:03:55.762Z,53.00
2022-12-08T09:06:23.734Z,52.13
2022-12-08T09:08:50.689Z,50.10
2022-12-08T09:11:18.711Z,50.90
2022-12-08T09:13:49.468Z,54.75
2022-12-08T09:16:17.186Z,52.78
2022-12-08T09:18:43.941Z,59.42
2022-12-08T09:21:16.456Z,54.00
2022-12-08T09:23:43.797Z,50.17
2022-12-08T09:26:10.368Z,52.85
2022-12-08T09:28:37.803Z,50.25
2022-12-08T09:31:04.652Z,52.95
2022-12-08T09:33:31.748Z,48.55
2022-12-08T09:36:02.921Z,48.38
2022-12-08T09:38:29.516Z,47.20
2022-12-08T09:40:56.456Z,49.08
2022-12-08T09:43:43.229Z,46.10
2022-12-08T09:46:13.559Z,48.20
2022-12-08T09:48:47.417Z,45.53
2022-12-08T09:51:16.005Z,42.45
2022-12-08T09:53:47.880Z,50.53
2022-12-08T09:56:32.929Z,51.10
2022-12-08T09:59:17.783Z,48.20
2022-12-08T10:01:44.414Z,48.40
2022-12-08T10:04:25.678Z,50.67
2022-12-08T10:07:04.972Z,51.85
2022-12-08T10:09:52.695Z,47.75
2022-12-08T10:12:46.382Z,50.03
2022-12-08T10:15:31.857Z,48.95
2022-12-08T10:18:02.314Z,45.45
2022-12-08T10:20:41.007Z,42.17
2022-12-08T10:23:19.246Z,41.78
2022-12-08T10:25:48.688Z,44.78
2022-12-08T10:28:15.465Z,39.13
2022-12-08T10:30:42.432Z,41.40
2022-12-08T10:33:16.610Z,39.95
2022-12-08T10:35:44.970Z,39.72
2022-12-08T10:38:34.954Z,50.03
2022-12-08T10:41:13.983Z,41.28
2022-12-08T10:44:01.321Z,49.35
2022-12-08T10:46:30.124Z,43.03
2022-12-08T10:49:24.845Z,44.60
2022-12-08T10:51:51.610Z,42.28
2022-12-08T10:54:33.066Z,47.40
2022-12-08T10:57:00.148Z,48.05
2022-12-08T10:59:27.123Z,41.33
2022-12-08T11:01:57.488Z,44.20
2022-12-08T11:04:30.828Z,44.90
2022-12-08T11:06:57.416Z,45.42
2022-12-08T11:09:34.282Z,44.03
2022-12-08T11:12:07.665Z,40.58
2022-12-08T11:14:43.735Z,40.63
2022-12-08T11:17:24.493Z,39.28
2022-12-08T11:19:56.881Z,41.20
2022-12-08T11:22:29.263Z,41.13
2022-12-08T11:25:08.053Z,43.75
2022-12-08T11:27:36.842Z,46.83
2022-12-08T11:30:18.824Z,45.00
2022-12-08T11:32:56.241Z,47.95
2022-12-08T11:35:28.762Z,49.05
2022-12-08T11:38:13.762Z,48.13
2022-12-08T11:40:50.451Z,46.22
2022-12-08T11:43:35.565Z,41.35
2022-12-08T11:46:16.691Z,45.30
2022-12-08T11:48:54.761Z,44.83
2022-12-08T11:51:32.589Z,46.10
2022-12-08T11:54:07.105Z,44.03
2022-12-08T11:56:37.633Z,46.88
2022-12-08T11:59:24.866Z,50.28
2022-12-08T12:01:51.929Z,46.83
2022-12-08T12:04:21.870Z,42.45
2022-12-08T12:07:21.667Z,44.10
2022-12-08T12:10:13.006Z,46.53
2022-12-08T12:12:49.898Z,43.33
2022-12-08T12:15:53.773Z,44.35
2022-12-08T12:21:07.645Z,41.47
2022-12-08T12:23:48.376Z,37.38
2022-12-08T12:26:21.400Z,44.47
2022-12-08T12:31:28.844Z,41.67
2022-12-08T12:34:07.386Z,40.63
2022-12-08T12:36:53.605Z,35.65
2022-12-08T12:39:23.550Z,37.40
2022-12-08T12:41:52.575Z,38.35
2022-12-08T12:44:19.087Z,39.35
2022-12-08T12:46:48.853Z,39.42
2022-12-08T12:49:40.260Z,38.65
2022-12-08T12:52:15.943Z,36.47
2022-12-08T12:55:02.435Z,40.25
2022-12-08T12:57:40.305Z,37.33
2022-12-08T13:00:18.173Z,37.97
2022-12-08T13:02:47.839Z,34.05
2022-12-08T13:05:21.028Z,32.00
2022-12-08T13:10:39.370Z,31.92
2022-12-08T13:13:18.095Z,37.30
2022-12-08T13:15:54.261Z,35.45
2022-12-08T13:18:26.529Z,34.78
2022-12-08T13:20:58.945Z,35.80
2022-12-08T13:23:37.733Z,37.47
2022-12-08T13:26:13.490Z,35.63
2022-12-08T13:28:58.635Z,33.55
2022-12-08T13:31:50.555Z,35.90
2022-12-08T13:34:55.175Z,28.65
2022-12-08T13:37:30.705Z,36.15
2022-12-08T13:40:09.426Z,32.13
2022-12-08T13:42:44.414Z,35.17
2022-12-08T13:48:26.644Z,25.75
2022-12-08T13:57:28.925Z,24.95
2022-12-08T14:00:01.102Z,28.80
2022-12-08T14:02:33.823Z,24.87
2022-12-08T14:05:18.582Z,26.85
2022-12-08T14:07:48.189Z,23.83
2022-12-08T14:10:22.015Z,24.73
2022-12-08T14:12:55.429Z,25.65
2022-12-08T14:15:23.144Z,27.60
2022-12-08T14:17:54.668Z,29.75
2022-12-08T14:20:29.481Z,31.25
2022-12-08T14:22:56.917Z,32.35
2022-12-08T14:25:25.355Z,31.15
2022-12-08T14:27:59.036Z,27.88
2022-12-08T14:30:31.154Z,29.88
2022-12-08T14:32:59.845Z,29.42
2022-12-08T14:35:37.164Z,28.20
2022-12-08T14:38:14.299Z,28.77
2022-12-08T14:40:43.308Z,25.25
2022-12-08T14:43:09.943Z,26.95
2022-12-08T14:45:39.257Z,25.17
2022-12-08T14:48:25.869Z,29.73
2022-12-08T14:50:58.710Z,23.35
2022-12-08T14:53:25.861Z,27.67
2022-12-08T14:55:52.537Z,30.23
2022-12-08T14:58:30.522Z,27.13
2022-12-08T15:00:59.050Z,33.22
2022-12-08T15:03:31.674Z,29.17
2022-12-08T15:06:03.149Z,27.75
2022-12-08T15:08:30.922Z,30.65
2022-12-08T15:11:34.162Z,29.92
2022-12-08T15:14:01.290Z,27.45
2022-12-08T15:16:45.884Z,30.23
2022-12-08T15:19:27.616Z,31.40
2022-12-08T15:21:56.962Z,27.33
2022-12-08T15:24:26.712Z,25.90
2022-12-08T15:26:53.834Z,30.67
2022-12-08T15:29:24.025Z,27.83
2022-12-08T15:31:52.792Z,29.02
2022-12-08T15:34:20.633Z,29.85
2022-12-08T15:36:49.225Z,29.35
2022-12-08T15:39:39.310Z,30.23
2022-12-08T15:42:12.413Z,29.75
2022-12-08T15:44:39.596Z,30.60
2022-12-08T15:47:07.078Z,30.73
2022-12-08T15:49:33.685Z,32.28
2022-12-08T15:52:10.577Z,29.85
2022-12-08T15:54:38.534Z,30.17
2022-12-08T15:57:40.277Z,25.85
2022-12-08T15:59:53.429Z,27.77
2022-12-08T16:02:22.841Z,30.40
2022-12-08T16:07:38.373Z,30.52
2022-12-08T16:10:07.484Z,33.00
2022-12-08T16:16:00.714Z,25.00
2022-12-08T16:18:34.365Z,30.45
2022-12-08T16:21:41.775Z,32.20
2022-12-08T16:23:48.512Z,27.27
2022-12-08T16:26:44.239Z,30.27
2022-12-08T16:29:06.051Z,44.92
2022-12-08T16:31:32.831Z,73.57
2022-12-08T16:33:59.476Z,39.13
2022-12-08T16:36:26.103Z,35.67
2022-12-08T16:38:52.676Z,34.92
2022-12-08T16:41:37.685Z,35.45
2022-12-08T16:44:06.173Z,37.45
2022-12-08T16:46:33.281Z,38.90
2022-12-08T16:48:59.849Z,35.53
2022-12-08T16:51:27.354Z,36.80
2022-12-08T16:53:56.812Z,34.20
2022-12-08T16:56:30.360Z,35.58
2022-12-08T16:58:58.705Z,45.70
2022-12-08T17:01:25.404Z,38.15
2022-12-08T17:04:14.781Z,33.45
2022-12-08T17:06:38.728Z,39.13
2022-12-08T17:09:05.401Z,41.15
2022-12-08T17:11:36.202Z,35.17
2022-12-08T17:14:05.879Z,35.63
2022-12-08T17:16:32.570Z,34.40
2022-12-08T17:18:59.219Z,38.85
2022-12-08T17:21:25.814Z,33.90
2022-12-08T17:23:52.436Z,33.85
2022-12-08T17:26:19.105Z,32.85
2022-12-08T17:29:00.412Z,33.85
2022-12-08T17:31:30.318Z,31.38
2022-12-08T17:34:05.238Z,32.40
2022-12-08T17:36:31.915Z,34.63
2022-12-08T17:38:59.158Z,34.33
2022-12-08T17:41:26.027Z,36.63
2022-12-08T17:43:52.769Z,33.28
2022-12-08T17:46:20.311Z,32.47
2022-12-08T17:48:47.234Z,33.30
2022-12-08T17:51:14.511Z,29.40
2022-12-08T17:53:41.200Z,31.13
2022-12-08T17:56:15.668Z,31.35
2022-12-08T17:58:42.426Z,37.17
2022-12-08T18:01:10.522Z,34.42
2022-12-08T18:03:37.440Z,33.42
2022-12-08T18:06:09.193Z,30.80
2022-12-08T18:08:36.073Z,30.98
2022-12-08T18:11:04.195Z,29.77
2022-12-08T18:13:31.366Z,33.90
2022-12-08T18:15:58.120Z,34.00
2022-12-08T18:18:24.764Z,29.45
2022-12-08T18:20:51.484Z,30.85
2022-12-08T18:23:18.099Z,27.88
2022-12-08T18:25:44.929Z,35.00
2022-12-08T18:28:11.578Z,30.30
2022-12-08T18:30:40.298Z,32.17
2022-12-08T18:33:07.685Z,32.53
2022-12-08T18:35:34.348Z,27.55
2022-12-08T18:38:00.940Z,26.23
2022-12-08T18:40:28.360Z,28.10
2022-12-08T18:42:55.143Z,30.52
2022-12-08T18:45:22.728Z,27.33
2022-12-08T18:47:51.365Z,26.63
2022-12-08T18:50:18.733Z,26.98
2022-12-08T18:52:46.453Z,26.60
2022-12-08T18:55:14.105Z,28.05
2022-12-08T18:57:43.085Z,27.00
2022-12-08T19:00:15.523Z,24.55
2022-12-08T19:02:42.636Z,24.42
2022-12-08T19:05:11.196Z,24.85
2022-12-08T19:07:38.188Z,24.08
2022-12-08T19:10:06.564Z,21.40
2022-12-08T19:12:33.474Z,24.20
2022-12-08T19:15:00.156Z,24.67
2022-12-08T19:17:26.957Z,25.83
2022-12-08T19:19:53.583Z,24.67
2022-12-08T19:22:20.255Z,24.92
2022-12-08T19:24:47.210Z,23.98
2022-12-08T19:27:13.822Z,23.52
2022-12-08T19:29:40.754Z,26.33
2022-12-08T19:32:07.422Z,20.90
2022-12-08T19:34:34.259Z,21.73
2022-12-08T19:37:01.116Z,23.63
2022-12-08T19:39:45.960Z,21.58
2022-12-08T19:42:36.753Z,23.88
2022-12-08T19:45:14.401Z,24.65
2022-12-08T19:47:42.265Z,24.65
2022-12-08T19:50:30.004Z,23.58
2022-12-08T19:52:56.808Z,23.27
2022-12-08T19:55:24.693Z,22.98
2022-12-08T19:57:52.196Z,23.48
2022-12-08T20:00:20.398Z,25.55
2022-12-08T20:02:47.932Z,23.48
2022-12-08T20:05:15.758Z,25.60
2022-12-08T20:07:42.631Z,23.83
2022-12-08T20:10:16.167Z,24.33
2022-12-08T20:12:43.468Z,22.98
2022-12-08T20:15:10.643Z,22.90
2022-12-08T20:17:38.575Z,25.80
2022-12-08T20:20:07.558Z,22.92
2022-12-08T20:22:34.896Z,24.38
2022-12-08T20:25:01.828Z,22.65
2022-12-08T20:27:29.162Z,21.83
2022-12-08T20:29:55.846Z,24.55
2022-12-08T20:32:22.443Z,23.45
2022-12-08T20:34:49.074Z,23.52
2022-12-08T20:37:15.787Z,22.67
2022-12-08T20:39:42.391Z,24.92
2022-12-08T20:42:12.898Z,25.60
2022-12-08T20:44:43.355Z,26.30
2022-12-08T20:47:11.636Z,24.83
2022-12-08T20:49:38.660Z,23.83
2022-12-08T20:52:05.581Z,25.90
2022-12-08T20:54:32.259Z,27.85
2022-12-08T20:56:59.314Z,27.30
2022-12-08T20:59:26.959Z,23.10
2022-12-08T21:01:53.992Z,24.42
2022-12-08T21:04:21.766Z,25.77
2022-12-08T21:06:49.331Z,23.33
2022-12-08T21:09:16.102Z,25.85
2022-12-08T21:11:42.777Z,24.48
2022-12-08T21:14:09.668Z,25.85
2022-12-08T21:16:36.542Z,24.27
2022-12-08T21:19:03.689Z,24.77
2022-12-08T21:21:30.341Z,23.60
2022-12-08T21:23:57.051Z,25.73
2022-12-08T21:26:26.983Z,23.40
2022-12-08T21:28:58.442Z,23.10
2022-12-08T21:31:31.805Z,26.25
2022-12-08T21:33:59.496Z,26.65
2022-12-08T21:36:26.257Z,25.40
2022-12-08T21:38:54.613Z,24.90
2022-12-08T21:41:42.143Z,26.67
2022-12-08T21:44:11.279Z,25.13
2022-12-08T21:46:38.512Z,25.45
2022-12-08T21:49:05.466Z,23.63
2022-12-08T21:51:33.811Z,23.73
2022-12-08T21:54:01.040Z,23.17
2022-12-08T21:56:27.832Z,24.25
2022-12-08T21:58:54.701Z,24.98
2022-12-08T22:01:21.469Z,27.88
2022-12-08T22:03:48.358Z,23.35
2022-12-08T22:06:14.959Z,23.92
2022-12-08T22:08:42.458Z,24.27
2022-12-08T22:11:10.684Z,23.98
2022-12-08T22:13:39.446Z,23.73
2022-12-08T22:16:09.419Z,25.38
2022-12-08T22:18:36.608Z,25.20
2022-12-08T22:21:15.441Z,24.77
2022-12-08T22:23:42.646Z,24.48
2022-12-08T22:26:10.632Z,25.30
2022-12-08T22:28:40.244Z,26.00
2022-12-08T22:31:21.026Z,21.98
2022-12-08T22:33:49.075Z,25.65
2022-12-08T22:36:22.040Z,25.30
2022-12-08T22:38:49.803Z,23.27
2022-12-08T22:41:17.276Z,24.05
2022-12-08T22:43:45.043Z,24.42
2022-12-08T22:46:18.793Z,27.77
2022-12-08T22:48:46.494Z,26.08
2022-12-08T22:51:13.962Z,25.73
2022-12-08T22:53:41.448Z,26.98
2022-12-08T22:56:10.524Z,25.10
2022-12-08T22:58:37.984Z,26.88
2022-12-08T23:01:05.787Z,26.00
2022-12-08T23:03:33.838Z,24.30
2022-12-08T23:06:01.384Z,26.77
2022-12-08T23:08:28.630Z,24.75
2022-12-08T23:10:55.877Z,25.63
2022-12-08T23:13:22.858Z,23.35
2022-12-08T23:15:49.550Z,28.75
2022-12-08T23:18:19.153Z,24.45
2022-12-08T23:20:46.951Z,27.92
2022-12-08T23:23:13.936Z,24.83
2022-12-08T23:25:42.236Z,26.13
2022-12-08T23:28:10.410Z,23.10
2022-12-08T23:30:40.007Z,23.02
2022-12-08T23:33:06.929Z,25.70
2022-12-08T23:35:33.675Z,22.88
2022-12-08T23:38:00.374Z,26.17
2022-12-08T23:40:27.119Z,24.42
2022-12-08T23:42:53.963Z,26.42
2022-12-08T23:45:20.775Z,22.85
2022-12-08T23:47:47.649Z,26.08
2022-12-08T23:50:14.239Z,23.90
2022-12-08T23:52:41.062Z,36.05
2022-12-08T23:55:08.804Z,30.65
2022-12-08T23:57:36.642Z,26.27
